createdAt,value
2023-04-18T00:00:25.951Z,6.59
2023-04-18T00:07:17.706Z,5.01
2023-04-18T00:10:48.024Z,6.48
2023-04-18T00:13:14.650Z,5.90
2023-04-18T00:15:43.989Z,5.27
2023-04-18T00:18:26.788Z,5.39
2023-04-18T00:21:19.101Z,6.38
2023-04-18T00:23:51.986Z,6.10
2023-04-18T00:30:31.881Z,5.60
2023-04-18T00:32:58.812Z,5.69
2023-04-18T00:35:25.678Z,3.49
2023-04-18T00:37:52.479Z,5.37
2023-04-18T00:40:20.277Z,6.22
2023-04-18T00:42:46.952Z,6.23
2023-04-18T00:45:14.190Z,6.07
2023-04-18T00:47:41.015Z,6.07
2023-04-18T00:50:09.791Z,6.03
2023-04-18T00:52:36.921Z,5.46
2023-04-18T00:55:07.282Z,5.95
2023-04-18T00:57:36.869Z,5.08
2023-04-18T01:00:10.099Z,5.84
2023-04-18T01:02:57.379Z,5.54
2023-04-18T01:05:50.249Z,5.41
2023-04-18T01:08:44.752Z,4.32
2023-04-18T01:11:11.891Z,5.08
2023-04-18T01:13:39.261Z,3.83
2023-04-18T01:16:06.277Z,5.11
2023-04-18T01:18:40.498Z,5.09
2023-04-18T01:21:10.531Z,3.50
2023-04-18T01:23:40.519Z,3.88
2023-04-18T01:26:07.691Z,3.59
2023-04-18T01:28:43.515Z,4.35
2023-04-18T01:31:14.349Z,4.56
2023-04-18T01:33:41.042Z,2.97
2023-04-18T01:36:33.635Z,5.01
2023-04-18T01:39:00.812Z,4.23
2023-04-18T01:41:33.772Z,4.91
2023-04-18T01:45:03.933Z,4.89
2023-04-18T01:48:25.847Z,4.88
2023-04-18T01:50:52.776Z,4.44
2023-04-18T01:53:19.549Z,3.95
2023-04-18T01:56:13.267Z,4.61
2023-04-18T01:59:04.536Z,4.65
2023-04-18T02:02:22.001Z,4.64
2023-04-18T02:04:48.807Z,4.75
2023-04-18T02:08:07.257Z,4.58
2023-04-18T02:15:39.109Z,4.50
2023-04-18T02:22:21.231Z,3.79
2023-04-18T02:29:01.306Z,3.85
2023-04-18T02:31:29.285Z,2.79
2023-04-18T02:33:56.080Z,4.07
2023-04-18T02:40:30.469Z,4.51
2023-04-18T02:47:59.530Z,4.47
2023-04-18T02:54:28.430Z,3.56
2023-04-18T02:57:01.648Z,3.47
2023-04-18T02:59:48.907Z,4.54
2023-04-18T03:02:38.318Z,3.16
2023-04-18T03:05:22.212Z,4.41
2023-04-18T03:11:50.520Z,4.17
2023-04-18T03:14:23.938Z,3.24
2023-04-18T03:16:55.493Z,4.02
2023-04-18T03:19:26.848Z,3.78
2023-04-18T03:21:56.002Z,3.84
2023-04-18T03:24:22.618Z,4.04
2023-04-18T03:27:24.379Z,4.08
2023-04-18T03:29:51.044Z,4.18
2023-04-18T03:32:18.657Z,4.18
2023-04-18T03:35:10.801Z,4.23
2023-04-18T03:37:37.705Z,3.24
2023-04-18T03:40:05.650Z,3.67
2023-04-18T03:42:32.587Z,3.34
2023-04-18T03:45:00.384Z,1.96
2023-04-18T03:47:28.498Z,3.16
2023-04-18T03:49:57.731Z,2.33
2023-04-18T03:52:28.520Z,2.26
2023-04-18T03:54:56.325Z,3.26
2023-04-18T03:57:27.158Z,3.41
2023-04-18T03:59:54.064Z,2.30
2023-04-18T04:02:21.698Z,2.93
2023-04-18T04:05:15.332Z,4.15
2023-04-18T04:07:42.321Z,3.67
2023-04-18T04:10:09.428Z,3.98
2023-04-18T04:12:36.407Z,3.35
2023-04-18T04:15:03.631Z,2.58
2023-04-18T04:21:42.459Z,4.10
2023-04-18T04:28:04.345Z,3.81
2023-04-18T04:34:37.332Z,3.00
2023-04-18T04:37:08.203Z,3.95
2023-04-18T04:40:06.814Z,2.40
2023-04-18T05:10:33.275Z,3.01
2023-04-18T05:13:02.585Z,4.01
2023-04-18T05:15:29.829Z,3.97
2023-04-18T05:17:57.156Z,3.28
2023-04-18T05:20:49.206Z,4.24
2023-04-18T05:23:16.428Z,2.56
2023-04-18T05:25:48.528Z,4.24
2023-04-18T05:28:18.540Z,4.13
2023-04-18T05:30:45.857Z,4.18
2023-04-18T05:33:12.756Z,3.94
2023-04-18T05:35:39.782Z,3.54
2023-04-18T05:39:08.980Z,4.10
2023-04-18T05:42:00.958Z,3.85
2023-04-18T05:44:30.547Z,3.88
2023-04-18T05:54:57.855Z,3.47
2023-04-18T05:57:27.752Z,1.41
2023-04-18T06:00:58.048Z,4.08
2023-04-18T06:03:27.694Z,4.01
2023-04-18T06:13:09.588Z,3.49
2023-04-18T06:16:38.960Z,4.14
2023-04-18T06:19:06.568Z,3.36
2023-04-18T06:25:48.276Z,2.94
2023-04-18T06:32:26.171Z,4.10
2023-04-18T06:34:55.369Z,3.39
2023-04-18T06:37:22.337Z,2.74
2023-04-18T06:40:51.788Z,4.48
2023-04-18T06:43:18.650Z,3.23
2023-04-18T06:45:45.949Z,2.38
2023-04-18T06:48:12.845Z,4.16
2023-04-18T06:50:39.664Z,3.29
2023-04-18T06:53:06.636Z,2.60
2023-04-18T06:55:33.684Z,3.16
2023-04-18T07:02:01.366Z,3.22
2023-04-18T07:04:28.221Z,3.54
2023-04-18T07:06:54.939Z,4.53
2023-04-18T07:09:22.803Z,4.11
2023-04-18T07:11:51.305Z,4.02
2023-04-18T07:14:23.006Z,2.83
2023-04-18T07:16:50.504Z,2.39
2023-04-18T07:23:20.115Z,4.28
2023-04-18T07:25:47.008Z,4.45
2023-04-18T07:28:58.871Z,5.43
2023-04-18T07:31:28.821Z,3.06
2023-04-18T07:33:55.652Z,3.20
2023-04-18T07:36:48.090Z,4.82
2023-04-18T07:39:15.109Z,3.38
2023-04-18T07:41:42.151Z,4.69
2023-04-18T07:44:08.935Z,4.47
2023-04-18T07:50:36.406Z,4.17
2023-04-18T07:57:15.539Z,3.14
2023-04-18T08:04:14.862Z,4.94
2023-04-18T08:06:41.913Z,3.89
2023-04-18T08:09:09.285Z,2.55
2023-04-18T08:12:00.875Z,4.69
2023-04-18T08:14:27.834Z,4.40
2023-04-18T08:16:54.909Z,4.04
2023-04-18T08:23:21.740Z,4.58
2023-04-18T08:30:03.800Z,4.82
2023-04-18T08:37:40.601Z,1.45
2023-04-18T08:40:08.237Z,3.48
2023-04-18T08:43:38.068Z,4.71
2023-04-18T08:46:05.136Z,4.64
2023-04-18T08:48:32.678Z,4.02
2023-04-18T08:51:25.009Z,2.49
2023-04-18T08:53:54.284Z,5.03
2023-04-18T08:56:22.608Z,4.86
2023-04-18T08:58:50.013Z,3.95
2023-04-18T09:05:19.926Z,4.54
2023-04-18T09:07:53.112Z,4.63
2023-04-18T09:14:42.994Z,5.05
2023-04-18T09:17:15.500Z,5.08
2023-04-18T09:20:14.811Z,4.10
2023-04-18T09:22:52.951Z,3.55
2023-04-18T09:29:01.605Z,4.42
2023-04-18T09:31:32.836Z,4.10
2023-04-18T09:34:02.617Z,3.67
2023-04-18T09:37:27.878Z,4.51
2023-04-18T09:39:55.519Z,4.05
2023-04-18T09:46:25.552Z,4.90
2023-04-18T09:48:54.716Z,5.58
2023-04-18T09:55:27.729Z,4.19
2023-04-18T09:58:56.874Z,5.85
2023-04-18T10:01:32.844Z,5.92
2023-04-18T10:04:25.784Z,5.65
2023-04-18T10:07:03.789Z,4.65
2023-04-18T10:09:56.573Z,5.29
2023-04-18T10:13:28.437Z,5.42
2023-04-18T10:16:07.480Z,3.53
2023-04-18T10:19:24.477Z,5.67
2023-04-18T10:21:59.707Z,5.33
2023-04-18T10:24:53.524Z,5.91
2023-04-18T10:28:17.836Z,6.19
2023-04-18T10:30:44.550Z,6.18
2023-04-18T10:36:06.150Z,6.66
2023-04-18T10:38:34.436Z,4.98
2023-04-18T10:41:15.906Z,5.19
2023-04-18T10:47:44.644Z,6.30
2023-04-18T10:50:23.754Z,6.87
2023-04-18T10:53:16.623Z,6.54
2023-04-18T10:55:54.935Z,5.96
2023-04-18T11:02:32.644Z,6.08
2023-04-18T11:05:02.977Z,5.13
2023-04-18T11:07:39.993Z,5.86
2023-04-18T11:10:59.791Z,7.11
2023-04-18T11:13:27.972Z,6.56
2023-04-18T11:15:54.919Z,5.06
2023-04-18T11:18:21.897Z,7.46
2023-04-18T11:20:50.453Z,7.17
2023-04-18T11:23:21.283Z,4.74
2023-04-18T11:25:51.562Z,7.24
2023-04-18T11:29:14.795Z,7.30
2023-04-18T11:31:41.949Z,6.72
2023-04-18T11:34:09.003Z,7.38
2023-04-18T11:37:26.690Z,8.10
2023-04-18T11:39:54.373Z,7.28
2023-04-18T11:42:46.447Z,8.02
2023-04-18T11:45:16.394Z,7.33
2023-04-18T11:47:44.061Z,8.16
2023-04-18T11:50:13.336Z,6.15
2023-04-18T11:53:05.383Z,8.10
2023-04-18T11:55:32.650Z,8.40
2023-04-18T11:58:01.881Z,7.71
2023-04-18T12:00:40.144Z,8.74
2023-04-18T12:03:15.743Z,6.40
2023-04-18T12:05:45.247Z,7.34
2023-04-18T12:08:23.361Z,8.38
2023-04-18T12:11:21.379Z,9.25
2023-04-18T12:13:54.829Z,9.38
2023-04-18T12:16:22.017Z,8.52
2023-04-18T12:26:30.803Z,6.71
2023-04-18T12:29:01.036Z,8.90
2023-04-18T12:32:08.723Z,9.27
2023-04-18T12:34:35.626Z,7.58
2023-04-18T12:37:03.732Z,7.72
2023-04-18T12:39:30.775Z,7.64
2023-04-18T12:42:55.794Z,9.32
2023-04-18T12:45:26.056Z,8.18
2023-04-18T12:48:17.848Z,9.14
2023-04-18T12:50:46.068Z,8.16
2023-04-18T12:53:13.582Z,8.63
2023-04-18T12:59:50.438Z,9.92
2023-04-18T13:02:33.216Z,8.12
2023-04-18T13:05:02.411Z,8.67
2023-04-18T13:10:27.290Z,9.38
2023-04-18T13:12:56.118Z,8.45
2023-04-18T13:15:41.569Z,10.13
2023-04-18T13:18:08.486Z,9.30
2023-04-18T13:20:36.665Z,9.06
2023-04-18T13:23:04.079Z,10.01
2023-04-18T13:25:31.556Z,8.78
2023-04-18T13:27:58.741Z,10.03
2023-04-18T13:43:03.420Z,9.00
2023-04-18T13:45:30.315Z,8.13
2023-04-18T13:47:57.278Z,8.13
2023-04-18T13:50:24.601Z,9.54
2023-04-18T13:52:52.192Z,9.58
2023-04-18T13:55:37.446Z,9.79
2023-04-18T13:58:04.168Z,9.72
2023-04-18T14:00:36.197Z,9.33
2023-04-18T14:03:03.251Z,8.91
2023-04-18T14:05:30.461Z,10.43
2023-04-18T14:08:02.521Z,10.38
2023-04-18T14:10:30.151Z,9.11
2023-04-18T14:12:57.530Z,7.91
2023-04-18T14:15:27.595Z,9.51
2023-04-18T14:17:54.454Z,10.02
2023-04-18T14:20:21.401Z,10.48
2023-04-18T14:23:00.043Z,10.05
2023-04-18T14:25:29.766Z,9.73
2023-04-18T14:28:09.747Z,10.38
2023-04-18T14:30:37.958Z,7.92
2023-04-18T14:33:05.421Z,10.40
2023-04-18T14:35:33.219Z,9.34
2023-04-18T14:38:04.248Z,10.25
2023-04-18T14:40:32.720Z,9.52
2023-04-18T14:42:59.861Z,10.09
2023-04-18T14:45:26.734Z,8.74
2023-04-18T14:47:55.761Z,9.39
2023-04-18T14:50:22.963Z,7.58
2023-04-18T14:53:03.820Z,9.95
2023-04-18T14:55:30.680Z,9.53
2023-04-18T14:58:07.800Z,10.43
2023-04-18T15:00:51.362Z,8.50
2023-04-18T15:03:18.427Z,8.17
2023-04-18T15:05:48.680Z,9.05
2023-04-18T15:08:22.858Z,10.63
2023-04-18T15:11:08.550Z,10.46
2023-04-18T15:13:35.666Z,9.66
2023-04-18T15:16:03.212Z,9.71
2023-04-18T15:18:32.851Z,9.47
2023-04-18T15:21:00.329Z,9.19
2023-04-18T15:23:30.532Z,10.06
2023-04-18T15:25:57.387Z,10.10
2023-04-18T15:32:47.754Z,8.95
2023-04-18T15:35:42.528Z,9.11
2023-04-18T15:38:42.944Z,10.41
2023-04-18T15:41:09.792Z,9.51
2023-04-18T15:43:36.564Z,10.01
2023-04-18T15:46:04.541Z,9.10
2023-04-18T15:48:51.176Z,10.41
2023-04-18T15:51:44.290Z,10.42
2023-04-18T15:54:11.247Z,10.05
2023-04-18T15:56:38.154Z,10.60
2023-04-18T15:59:34.457Z,10.65
2023-04-18T16:02:01.950Z,9.94
2023-04-18T16:04:53.752Z,10.59
2023-04-18T16:07:20.586Z,9.02
2023-04-18T16:09:47.323Z,10.71
2023-04-18T16:16:21.700Z,9.36
2023-04-18T16:19:14.359Z,9.13
2023-04-18T16:21:41.470Z,10.57
2023-04-18T16:28:08.537Z,10.40
2023-04-18T16:42:56.853Z,8.52
2023-04-18T16:50:07.028Z,10.32
2023-04-18T16:52:33.882Z,9.84
2023-04-18T16:55:00.961Z,7.93
2023-04-18T16:57:27.874Z,8.63
2023-04-18T16:59:54.761Z,8.67
2023-04-18T17:02:21.926Z,9.32
2023-04-18T17:04:49.718Z,9.46
2023-04-18T17:07:54.888Z,10.23
2023-04-18T17:10:21.861Z,10.27
2023-04-18T17:13:14.463Z,10.25
2023-04-18T17:15:41.767Z,9.81
2023-04-18T17:18:34.196Z,10.36
2023-04-18T17:21:01.120Z,9.34
2023-04-18T17:27:29.406Z,10.30
2023-04-18T17:29:56.095Z,9.39
2023-04-18T17:36:24.688Z,10.33
2023-04-18T17:38:51.540Z,8.96
2023-04-18T17:42:04.110Z,10.40
2023-04-18T17:44:40.795Z,9.72
2023-04-18T17:55:21.478Z,10.03
2023-04-18T17:57:48.517Z,8.61
2023-04-18T18:00:15.929Z,8.04
2023-04-18T18:06:55.865Z,8.53
2023-04-18T18:13:22.492Z,9.36
2023-04-18T18:19:50.456Z,9.22
2023-04-18T18:22:17.840Z,8.95
2023-04-18T18:25:10.119Z,8.86
2023-04-18T18:27:37.365Z,8.53
2023-04-18T18:30:05.284Z,6.80
2023-04-18T18:32:32.189Z,7.94
2023-04-18T18:35:06.286Z,8.66
2023-04-18T18:37:38.649Z,9.28
2023-04-18T18:44:07.684Z,8.11
2023-04-18T18:50:42.016Z,8.59
2023-04-18T18:53:08.852Z,9.25
2023-04-18T18:55:35.729Z,6.94
2023-04-18T18:58:02.661Z,9.13
2023-04-18T19:04:29.390Z,8.23
2023-04-18T19:06:56.406Z,8.27
2023-04-18T19:09:23.557Z,7.55
2023-04-18T19:11:51.225Z,9.06
2023-04-18T19:14:18.174Z,8.96
2023-04-18T19:20:46.635Z,8.75
2023-04-18T19:23:13.474Z,7.48
2023-04-18T19:25:40.472Z,8.66
2023-04-18T19:28:28.208Z,8.91
2023-04-18T19:35:13.756Z,8.40
2023-04-18T19:37:40.622Z,7.71
2023-04-18T19:40:20.325Z,8.22
2023-04-18T19:42:47.192Z,7.05
2023-04-18T19:45:15.598Z,7.01
2023-04-18T19:47:44.424Z,6.26
2023-04-18T19:50:11.965Z,6.92
2023-04-18T19:55:31.685Z,8.06
2023-04-18T19:57:59.167Z,8.31
2023-04-18T20:01:29.333Z,8.38
2023-04-18T20:03:58.674Z,8.16
2023-04-18T20:06:51.443Z,8.30
2023-04-18T20:09:18.202Z,7.36
2023-04-18T20:11:46.572Z,7.35
2023-04-18T20:14:13.384Z,8.16
2023-04-18T20:16:42.826Z,7.23
2023-04-18T20:19:12.585Z,8.05
2023-04-18T20:25:26.587Z,7.36
2023-04-18T20:27:53.373Z,7.00
2023-04-18T20:30:21.614Z,8.19
2023-04-18T20:32:48.480Z,7.71
2023-04-18T20:35:15.503Z,7.94
2023-04-18T20:37:42.143Z,7.27
2023-04-18T20:40:09.985Z,7.14
2023-04-18T20:42:37.426Z,6.37
2023-04-18T20:45:05.017Z,7.18
2023-04-18T20:47:35.133Z,7.58
2023-04-18T20:50:02.076Z,8.02
2023-04-18T20:52:28.889Z,6.92
2023-04-18T20:54:55.657Z,8.13
2023-04-18T20:57:22.518Z,7.36
2023-04-18T20:59:49.143Z,8.06
2023-04-18T21:02:16.235Z,6.69
2023-04-18T21:04:43.350Z,6.63
2023-04-18T21:07:11.302Z,7.91
2023-04-18T21:09:51.348Z,7.47
2023-04-18T21:12:18.180Z,7.00
2023-04-18T21:14:45.044Z,7.78
2023-04-18T21:17:39.809Z,8.03
2023-04-18T21:20:08.335Z,8.09
2023-04-18T21:22:35.136Z,7.07
2023-04-18T21:25:02.520Z,7.12
2023-04-18T21:27:29.852Z,6.65
2023-04-18T21:29:57.041Z,7.92
2023-04-18T21:32:24.154Z,6.95
2023-04-18T21:34:51.207Z,7.87
2023-04-18T21:37:18.150Z,6.54
2023-04-18T21:39:45.100Z,5.93
2023-04-18T21:42:12.043Z,6.31
2023-04-18T21:44:38.834Z,7.93
2023-04-18T21:47:26.275Z,7.10
2023-04-18T21:49:53.085Z,7.05
2023-04-18T21:52:20.108Z,7.21
2023-04-18T21:54:47.124Z,5.67
2023-04-18T21:57:40.040Z,8.10
2023-04-18T22:00:10.354Z,8.00
2023-04-18T22:02:40.043Z,7.80
2023-04-18T22:05:08.170Z,8.21
2023-04-18T22:07:40.808Z,6.47
2023-04-18T22:14:58.325Z,7.82
2023-04-18T22:17:26.045Z,7.09
2023-04-18T22:23:52.675Z,7.17
2023-04-18T22:26:19.330Z,7.74
2023-04-18T22:28:46.295Z,8.27
2023-04-18T22:31:13.013Z,8.24
2023-04-18T22:33:39.977Z,7.38
2023-04-18T22:36:06.982Z,7.24
2023-04-18T22:39:22.726Z,8.20
2023-04-18T22:41:49.597Z,7.68
2023-04-18T22:44:16.906Z,6.42
2023-04-18T22:46:44.935Z,7.72
2023-04-18T22:49:11.875Z,6.81
2023-04-18T22:51:38.824Z,6.87
2023-04-18T22:58:05.394Z,7.55
2023-04-18T23:00:32.646Z,8.06
2023-04-18T23:03:59.417Z,8.11
2023-04-18T23:06:29.098Z,7.88
2023-04-18T23:08:56.048Z,7.51
2023-04-18T23:11:22.846Z,7.44
2023-04-18T23:13:50.178Z,7.34
2023-04-18T23:16:17.248Z,7.60
2023-04-18T23:18:44.110Z,7.70
2023-04-18T23:21:11.221Z,7.73
2023-04-18T23:23:38.391Z,6.12
2023-04-18T23:26:13.315Z,5.87
2023-04-18T23:29:20.839Z,7.66
2023-04-18T23:31:47.662Z,7.71
2023-04-18T23:34:14.632Z,7.26
2023-04-18T23:40:37.410Z,6.28
2023-04-18T23:43:23.897Z,7.65
2023-04-18T23:45:51.152Z,6.99
2023-04-18T23:48:17.818Z,7.45
2023-04-18T23:50:46.365Z,6.52
2023-04-18T23:53:13.452Z,5.94
2023-04-18T23:55:40.583Z,6.17
2023-04-18T23:58:07.812Z,5.76
